Tiempo atmosférico en la estación meteorológica de Cabacés, Tarragona (360 m.)



Fecha
DESCASC
Temp. máxima en grados centígrados (hora)
DESCASC
Temp. mínima en grados centígrados (hora)
DESCASC
Temp. media en grados centígrados
DESCASC
Racha de viento máxima en m/sg (hora)
DESCASC
Velocidad máxima media en intervalos de 10 minutos(hora)
DESCASC
Precipitaciones diarias en mm
DESCASC
Precipitaciones de 00:00 a 06:00 en mm
DESCASC
Precipitaciones de 06:00 a 12:00 en mm
DESCASC
Precipitaciones de 12:00 a 18:00 en mm
DESCASC
Precipitaciones de 18:00 a 24:00 en mm
DESCASC
17-09-2020 28.7 (15:30) 18.4 (06:30) 23.6 8.89 (21:10) 3.06 (22:10) 0 0 0 0 0
15-09-2020 32.9 (16:10) 20.2 (08:00) 26.6 8.61 (00:10) 2.78 (19:20) 0 0 0 0 0
14-09-2020 32 (16:20) 17.3 (08:40) 24.6 9.44 (15:10) 3.61 (18:10) 0 0 0 0 0
13-09-2020 33.4 (15:00) 17.5 (00:00) 25.5 8.06 (16:30) 3.89 (19:30) 0 0 0 0 0
12-09-2020 33.5 (16:30) 16.4 (07:40) 24.9 6.67 (19:30) 3.33 (17:40) 0 0 0 0 0
11-09-2020 32.1 (18:20) 17.5 (00:00) 24.8 6.94 (19:10) 3.61 (19:00) 0 0 0 0 0
10-09-2020 30.5 (17:00) 16.2 (00:00) 23.4 8.89 (19:40) 3.06 (20:50) 0 0 0 0 0
09-09-2020 26.6 (17:00) 17 (07:20) 21.8 6.11 (11:50) 3.06 (13:30) 0 0 0 0 0
08-09-2020 27.8 (15:50) 13.6 (00:00) 20.7 6.39 (16:50) 2.78 (13:40) 0 0 0 0 0
07-09-2020 27 (18:10) 14.2 (08:30) 20.6 7.22 (14:50) 3.06 (21:00) 0 0 0 0 0
06-09-2020 28.5 (17:10) 17.2 (00:00) 22.9 8.61 (15:20) 2.78 (15:30) 0 0 0 0 0
05-09-2020 32.3 (16:40) 20.3 (00:00) 26.3 7.5 (22:40) 2.78 (19:10) 0 0 0 0 0
04-09-2020 31.3 (15:30) 18.7 (00:00) 25 7.78 (20:40) 2.78 (18:10) 0 0 0 0 0
03-09-2020 31.7 (16:50) 13.9 (00:00) 22.8 8.89 (18:20) 2.5 (18:00) 0 0 0 0 0
02-09-2020 28.8 (18:20) 14.1 (00:00) 21.4 6.67 (15:50) 2.5 (19:50) 0 0 0 0 0
01-09-2020 28.2 (16:40) 13.9 (00:00) 21.1 5.83 (16:50) 2.22 (17:00) 0 0 0 0 0
31-08-2020 27.7 (18:20) 11.1 (00:00) 19.4 6.94 (14:00) 2.78 (14:00) 0 0 0 0 0
30-08-2020 25.2 (16:50) 12.4 (00:00) 18.8 9.17 (13:00) 2.78 (18:40) 0 0 0 0 0
29-08-2020 25.9 (17:40) 16.5 (00:00) 21.2 8.61 (16:40) 3.06 (15:10) 0 0 0 0 0
28-08-2020 31.5 (16:40) 20.3 (00:00) 25.9 6.67 (00:20) 3.61 (00:10) 0.2 0 0 0 0.2
27-08-2020 34.2 (15:10) 21.8 (00:00) 28 8.06 (15:30) 3.61 (23:50) 0 0 0 0 0
26-08-2020 34.2 (17:10) 23.6 (00:00) 28.9 7.5 (19:30) 3.61 (20:10) 0 0 0 0 0
25-08-2020 36.5 (16:50) 23.2 (00:00) 29.9 6.67 (18:10) 3.33 (02:40) 0 0 0 0 0
24-08-2020 32.2 (17:30) 16.4 (08:00) 24.3 6.11 (11:40) 2.78 (22:10) 0 0 0 0 0
23-08-2020 32.1 (18:00) 18.6 (00:00) 25.3 6.67 (14:50) 2.5 (14:50) 0 0 0 0 0
22-08-2020 34.5 (16:50) 21.6 (00:00) 28.1 6.67 (18:20) 2.78 (18:20) 0 0 0 0 0
21-08-2020 36.6 (16:00) 23.3 (07:40) 29.9 8.89 (02:10) 3.33 (02:10) 0 0 0 0 0
20-08-2020 32.6 (14:20) 24.9 (00:00) 28.7 12.78 (17:40) 4.44 (19:20) 0 0 0 0 0
19-08-2020 34.3 (14:50) 18.9 (00:00) 26.6 10.28 (16:10) 3.61 (19:40) 0 0 0 0 0

Gráficas

Temp. máximas Temp. mínimas Temp. medias Precipitaciones Rachas de viento máximas Velocidades máximas media en intervalos de 10 minutos

Datos horarios

Fecha y hora oficial Temperatura (ºC) Velocidad del viento (km/h) Dirección del viento Racha (km/h) Dirección de racha Precipitación (mm) Presión (hPa) Tendencia (hPa) Humedad (%)
2020-09-17 23:00:00 23.2 9 Sudeste 31 Sudeste 0 -- -- 62
2020-09-17 22:00:00 24.1 10 Sudeste 32 Sur 0 -- -- 52
2020-09-17 21:00:00 24.2 6 Sur 24 Sudeste 0 -- -- 53
2020-09-17 20:00:00 24.9 9 Sudeste 23 Sudeste 0 -- -- 56
2020-09-17 19:00:00 25.9 6 Sudeste 28 Sudeste 0 -- -- 54
2020-09-17 18:00:00 27 5 Sudoeste 21 Noroeste 0 -- -- 48
2020-09-17 17:00:00 27.7 4 Oeste 17 Sudoeste 0 -- -- 49
2020-09-17 16:00:00 28.6 6 Oeste 22 Noroeste 0 -- -- 45
2020-09-17 15:00:00 28.4 5 Oeste 14 Sudoeste 0 -- -- 40
2020-09-17 14:00:00 27.4 5 Sudeste 15 Sudeste 0 -- -- 43
2020-09-17 13:00:00 26.5 5 Sudeste 21 Este 0 -- -- 42
2020-09-17 12:00:00 26.5 9 Sudeste 21 Este 0 -- -- 41
2020-09-17 11:00:00 25.9 5 Sudeste 14 Este 0 -- -- 41
2020-09-17 10:00:00 24.5 3 Este 14 Este 0 -- -- 43
2020-09-17 09:00:00 22.7 3 Norte 15 Este 0 -- -- 51
2020-09-17 08:00:00 19.7 2 Oeste 7 Sudeste 0 -- -- 61
2020-09-17 07:00:00 18.9 2 Nordeste 6 Nordeste 0 -- -- 63
2020-09-17 06:00:00 18.7 0 Calma 4 Oeste 0 -- -- 64
2020-09-17 05:00:00 18.9 0 Calma 5 Sudeste 0 -- -- 62
2020-09-17 04:00:00 19.2 0 Calma 6 Nordeste 0 -- -- 62
2020-09-17 03:00:00 19.1 3 Noroeste 13 Sudoeste 0 -- -- 64
2020-09-17 02:00:00 20 0 Calma 5 Nordeste 0 -- -- 64
2020-09-17 01:00:00 21 2 Norte 6 Norte 0 -- -- 63
2020-09-17 00:00:00 22.1 3 Oeste 12 Norte 0 -- -- 64
2020-09-16 23:00:00 23.4 6 Sur 16 Sudeste 0 -- -- 59
2020-09-16 22:00:00 23.9 5 Sur 14 Sur 0 -- -- 59
2020-09-16 21:00:00 24.6 3 Este 18 Este 0 -- -- 61
2020-09-16 20:00:00 26.2 6 Sudeste 20 Sudeste 0 -- -- 54
2020-09-16 19:00:00 28.6 8 Sudeste 24 Sudeste 0 -- -- 50
2020-09-16 18:00:00 29.8 5 Sudoeste 27 Sudoeste 0 -- -- 48
2020-09-16 17:00:00 31.7 9 Oeste 22 Noroeste 0 -- -- 48
2020-09-16 16:00:00 32.9 6 Sudoeste 14 Oeste 0 -- -- 43
2020-09-16 15:00:00 32.6 5 Sudeste 14 Sur 0 -- -- 38
2020-09-16 14:00:00 31.8 4 Sur 16 Sudoeste 0 -- -- 37
2020-09-16 13:00:00 30.1 5 Sudoeste 11 Noroeste 0 -- -- 42
2020-09-16 12:00:00 27.9 3 Sudoeste 9 Oeste 0 -- -- 50
2020-09-16 11:00:00 25.3 4 Oeste 7 Noroeste 0 -- -- 58
2020-09-16 10:00:00 20 0 Calma 2 Sur 0 -- -- 78
2020-09-16 09:00:00 17.7 0 Calma 3 Sudeste 0 -- -- 79
2020-09-16 08:00:00 17.5 0 Calma 2 Noroeste 0 -- -- 78
2020-09-16 07:00:00 17.7 0 Calma 6 Oeste 0 -- -- 75
2020-09-16 06:00:00 18.5 0 Calma 4 Este 0 -- -- 71
2020-09-16 05:00:00 19.1 0 Calma 4 Norte 0 -- -- 68
2020-09-16 04:00:00 20.1 0 Calma 8 Noroeste 0 -- -- 65
2020-09-16 03:00:00 21 4 Sudoeste 9 Oeste 0 -- -- 63
2020-09-16 02:00:00 21.9 2 Noroeste 13 Sur 0 -- -- 63
2020-09-16 01:00:00 23.5 6 Sur 17 Sur 0 -- -- 58
2020-09-16 00:00:00 23.7 4 Sur 14 Sudeste 0 -- -- 60
2020-09-15 23:00:00 24.6 4 Sudoeste 18 Sudeste 0 -- -- 60
2020-09-15 22:00:00 25.1 8 Sudeste 18 Sur 0 -- -- 56
2020-09-15 21:00:00 25.3 5 Sur 15 Sudeste 0 -- -- 60
2020-09-15 20:00:00 26.8 6 Sudeste 21 Sudeste 0 -- -- 58
2020-09-15 19:00:00 29.9 6 Sudeste 20 Sudeste 0 -- -- 50
2020-09-15 18:00:00 30.9 8 Sudoeste 29 Sudoeste 0 -- -- 42
2020-09-15 17:00:00 32.6 9 Oeste 23 Sur 0 -- -- 42
2020-09-15 16:00:00 32.5 6 Sur 14 Sudoeste 0 -- -- 35
2020-09-15 15:00:00 32.4 4 Oeste 14 Noroeste 0 -- -- 35
2020-09-15 14:00:00 30.7 5 Sudoeste 13 Oeste 0 -- -- 41
2020-09-15 13:00:00 28.8 5 Oeste 10 Sudoeste 0 -- -- 44
2020-09-15 12:00:00 26.4 5 Oeste 12 Sur 0 -- -- 52
2020-09-15 11:00:00 24.2 3 Sur 8 Sur 0 -- -- 60
2020-09-15 10:00:00 22.6 0 Calma 5 Sudoeste 0 -- -- 69
2020-09-15 09:00:00 21.5 2 Oeste 8 Sudeste 0 -- -- 72
2020-09-15 08:00:00 20.2 3 Sudoeste 8 Oeste 0 -- -- 65
2020-09-15 07:00:00 20.7 3 Norte 10 Sudoeste 0 -- -- 63
2020-09-15 06:00:00 21.4 3 Norte 24 Este 0 -- -- 63
2020-09-15 05:00:00 22.5 7 Sudeste 21 Sudeste 0 -- -- 60
2020-09-15 04:00:00 22.3 6 Sudeste 24 Sudeste 0 -- -- 61
2020-09-15 03:00:00 21.9 6 Nordeste 18 Nordeste 0 -- -- 62
2020-09-15 02:00:00 22 5 Noroeste 18 Sur 0 -- -- 61
2020-09-15 01:00:00 22.8 9 Sudeste 31 Sudoeste 0 -- -- 53
2020-09-15 00:00:00 23.4 9 Sudoeste 21 Sudoeste 0 -- -- 50
2020-09-14 23:00:00 23.6 6 Norte 23 Sudeste 0 -- -- 50
2020-09-14 22:00:00 24 5 Noroeste 21 Sur 0 -- -- 49
2020-09-14 21:00:00 24.2 6 Sudeste 20 Sur 0 -- -- 52
2020-09-14 20:00:00 25.5 9 Sur 27 Sudeste 0 -- -- 49
2020-09-14 19:00:00 27.2 6 Sudeste 24 Sudeste 0 -- -- 43
2020-09-14 18:00:00 28.2 12 Sudeste 26 Nordeste 0 -- -- 41
2020-09-14 17:00:00 30.1 8 Sudoeste 29 Sudoeste 0 -- -- 35
2020-09-14 16:00:00 31.7 7 Sudeste 34 Sudoeste 0 -- -- 32
2020-09-14 15:00:00 31.4 10 Noroeste 28 Sudoeste 0 -- -- 33
2020-09-14 14:00:00 31.2 7 Oeste 22 Oeste 0 -- -- 35
2020-09-14 13:00:00 30.3 6 Oeste 21 Oeste 0 -- -- 37
2020-09-14 12:00:00 29 4 Noroeste 17 Noroeste 0 -- -- 39
2020-09-14 11:00:00 27 6 Sudoeste 13 Este 0 -- -- 41
2020-09-14 10:00:00 21 0 Calma 6 Sudeste 0 -- -- 56
2020-09-14 09:00:00 17.7 3 Este 10 Sudoeste 0 -- -- 62
2020-09-14 08:00:00 17.6 3 Este 8 Sudeste 0 -- -- 59
2020-09-14 07:00:00 18 0 Calma 6 Nordeste 0 -- -- 59
2020-09-14 06:00:00 18.2 0 Calma 8 Sudeste 0 -- -- 59
2020-09-14 05:00:00 18.9 3 Nordeste 7 Nordeste 0 -- -- 57
2020-09-14 04:00:00 19.9 0 Calma 5 Sudeste 0 -- -- 54
2020-09-14 03:00:00 20.9 0 Calma 12 Nordeste 0 -- -- 50
2020-09-14 02:00:00 22.4 3 Este 12 Sudeste 0 -- -- 46
2020-09-14 01:00:00 23.8 4 Nordeste 16 Nordeste 0 -- -- 44
2020-09-14 00:00:00 23.8 4 Sudeste 19 Sudeste 0 -- -- 42
2020-09-13 23:00:00 24.4 5 Noroeste 15 Este 0 -- -- 43
2020-09-13 22:00:00 25.2 4 Este 21 Este 0 -- -- 43
2020-09-13 21:00:00 25.7 7 Noroeste 17 Nordeste 0 -- -- 46
2020-09-13 20:00:00 27.7 8 Sudoeste 27 Sudeste 0 -- -- 45
2020-09-13 19:00:00 31 6 Sur 24 Sudeste 0 -- -- 35
2020-09-13 18:00:00 31.8 7 Sudeste 25 Sudeste 0 -- -- 33
2020-09-13 17:00:00 32.4 11 Sudeste 29 Sur 0 -- -- 33
2020-09-13 16:00:00 32.9 8 Sur 24 Noroeste 0 -- -- 30
2020-09-13 15:00:00 33.4 7 Sudoeste 23 Sudoeste 0 -- -- 32
2020-09-13 14:00:00 32.7 6 Sudeste 17 Sur 0 -- -- 33
2020-09-13 13:00:00 31.7 5 Sudeste 17 Sudoeste 0 -- -- 34
2020-09-13 12:00:00 30.1 5 Oeste 18 Sudoeste 0 -- -- 36
2020-09-13 11:00:00 27.2 3 Oeste 5 Oeste 0 -- -- 45
2020-09-13 10:00:00 20.5 0 Calma 2 Sur 0 -- -- 65
2020-09-13 09:00:00 18 0 Calma 5 Sudeste 0 -- -- 70
2020-09-13 08:00:00 17.5 0 Calma 2 Nordeste 0 -- -- 70
2020-09-13 07:00:00 17.8 0 Calma 2 Noroeste 0 -- -- 69
2020-09-13 06:00:00 18.6 0 Calma 4 Sudeste 0 -- -- 66
2020-09-13 05:00:00 19.4 0 Calma 5 Sur 0 -- -- 62
2020-09-13 04:00:00 20.3 2 Nordeste 4 Nordeste 0 -- -- 58
2020-09-13 03:00:00 22 2 Oeste 12 Sudeste 0 -- -- 53
2020-09-13 02:00:00 23.4 5 Sudeste 15 Sudeste 0 -- -- 49
2020-09-13 01:00:00 23.5 4 Sudeste 14 Este 0 -- -- 48
2020-09-13 00:00:00 23.4 3 Sudeste 15 Sudeste 0 -- -- 48
2020-09-12 23:00:00 24.2 4 Este 14 Sudeste 0 -- -- 46
2020-09-12 22:00:00 24.7 3 Este 15 Este 0 -- -- 44
2020-09-12 21:00:00 25.5 4 Oeste 20 Sudeste 0 -- -- 42
2020-09-12 20:00:00 27.1 7 Sur 24 Sudeste 0 -- -- 39
2020-09-12 19:00:00 29.8 7 Sur 24 Sur 0 -- -- 35
2020-09-12 18:00:00 31.3 8 Sudeste 23 Sudeste 0 -- -- 33
2020-09-12 17:00:00 33.4 6 Sudoeste 13 Noroeste 0 -- -- 31
2020-09-12 16:00:00 32.9 5 Noroeste 14 Noroeste 0 -- -- 32
2020-09-12 15:00:00 31.9 5 Norte 16 Norte 0 -- -- 32
2020-09-12 14:00:00 30.3 5 Sudoeste 11 Sudoeste 0 -- -- 38
2020-09-12 13:00:00 28.3 5 Noroeste 12 Oeste 0 -- -- 44
2020-09-12 12:00:00 26 6 Oeste 16 Oeste 0 -- -- 50
2020-09-12 11:00:00 24.1 4 Sudoeste 14 Sur 0 -- -- 56
2020-09-12 10:00:00 20 2 Sur 6 Sudeste 0 -- -- 71
2020-09-12 09:00:00 16.6 0 Calma 5 Este 0 -- -- 71
2020-09-12 08:00:00 16.4 0 Calma 4 Sudeste 0 -- -- 68
2020-09-12 07:00:00 16.9 0 Calma 5 Sudeste 0 -- -- 67
2020-09-12 06:00:00 17.5 0 Calma 2 Sur 0 -- -- 64
2020-09-12 05:00:00 18.6 0 Calma 4 Nordeste 0 -- -- 62
2020-09-12 04:00:00 19.8 2 Nordeste 5 Oeste 0 -- -- 58
2020-09-12 03:00:00 22 3 Sur 19 Sudeste 0 -- -- 52
2020-09-12 02:00:00 22.7 6 Este 20 Sudeste 0 -- -- 50
2020-09-12 01:00:00 22.5 6 Sudeste 22 Sudeste 0 -- -- 52
2020-09-12 00:00:00 22.9 6 Este 19 Este 0 -- -- 50
2020-09-11 23:00:00 23.2 5 Norte 17 Nordeste 0 -- -- 48
2020-09-11 22:00:00 23.7 6 Norte 17 Este 0 -- -- 48
2020-09-11 21:00:00 24.6 5 Nordeste 22 Sudeste 0 -- -- 47
2020-09-11 20:00:00 26.6 6 Sur 25 Sudeste 0 -- -- 44
2020-09-11 19:00:00 29.7 13 Sudeste 22 Sudeste 0 -- -- 38
2020-09-11 18:00:00 31.9 4 Oeste 16 Oeste 0 -- -- 30
2020-09-11 17:00:00 31.7 6 Norte 20 Oeste 0 -- -- 32
2020-09-11 16:00:00 31.3 8 Sur 18 Oeste 0 -- -- 33
2020-09-11 15:00:00 30.3 6 Sudoeste 16 Oeste 0 -- -- 38
2020-09-11 14:00:00 28.4 7 Noroeste 19 Oeste 0 -- -- 42
2020-09-11 13:00:00 26.6 4 Sudoeste 16 Oeste 0 -- -- 47
2020-09-11 12:00:00 24.6 7 Oeste 17 Oeste 0 -- -- 52
2020-09-11 11:00:00 22.6 5 Nordeste 15 Oeste 0 -- -- 56
2020-09-11 10:00:00 19.8 4 Nordeste 12 Norte 0 -- -- 63
2020-09-11 09:00:00 18.3 4 Este 10 Nordeste 0 -- -- 66
2020-09-11 08:00:00 17.8 4 Nordeste 9 Este 0 -- -- 67
2020-09-11 07:00:00 17.8 0 Calma 9 Este 0 -- -- 68
2020-09-11 06:00:00 18.6 4 Este 12 Nordeste 0 -- -- 65
2020-09-11 05:00:00 18.5 4 Nordeste 10 Nordeste 0 -- -- 67
2020-09-11 04:00:00 17.7 0 Calma 3 Noroeste 0 -- -- 77
2020-09-11 03:00:00 18.3 0 Calma 5 Sur 0 -- -- 76
2020-09-11 02:00:00 19.2 0 Calma 6 Noroeste 0 -- -- 73
2020-09-11 01:00:00 20.3 4 Norte 11 Este 0 -- -- 71
2020-09-11 00:00:00 21.2 3 Sur 17 Sur 0 -- -- 71
2020-09-10 23:00:00 21.8 4 Sur 17 Sur 0 -- -- 68
2020-09-10 22:00:00 22.1 5 Noroeste 21 Sudeste 0 -- -- 68
2020-09-10 21:00:00 22.1 10 Sudeste 26 Sudeste 0 -- -- 66
2020-09-10 20:00:00 24.5 8 Nordeste 32 Sudeste 0 -- -- 57
2020-09-10 19:00:00 29.8 6 Nordeste 16 Oeste 0 -- -- 33
2020-09-10 18:00:00 30 5 Este 18 Oeste 0 -- -- 34
2020-09-10 17:00:00 30.5 4 Oeste 26 Oeste 0 -- -- 34
2020-09-10 16:00:00 29.3 7 Sudoeste 24 Sudoeste 0 -- -- 38
2020-09-10 15:00:00 28 6 Oeste 16 Sur 0 -- -- 45
2020-09-10 14:00:00 25.2 6 Oeste 14 Sur 0 -- -- 55
2020-09-10 13:00:00 23.9 5 Sudoeste 18 Oeste 0 -- -- 58
2020-09-10 12:00:00 23.3 4 Sudoeste 17 Noroeste 0 -- -- 65
2020-09-10 11:00:00 20.4 4 Norte 10 Norte 0 -- -- 78
2020-09-10 10:00:00 18.3 4 Norte 8 Norte 0 -- -- 87
2020-09-10 09:00:00 16.5 3 Sudeste 6 Sur 0 -- -- 88
2020-09-10 08:00:00 16.3 0 Calma 6 Este 0 -- -- 86
2020-09-10 07:00:00 16.6 0 Calma 5 Sudeste 0 -- -- 86
2020-09-10 06:00:00 16.7 0 Calma 5 Sudeste 0 -- -- 86
2020-09-10 05:00:00 17 2 Sudeste 4 Sudeste 0 -- -- 85
2020-09-10 04:00:00 17 2 Sur 6 Sudeste 0 -- -- 84
2020-09-10 03:00:00 16.5 3 Sudeste 6 Este 0 -- -- 83
2020-09-10 02:00:00 17.5 3 Sudeste 5 Sudeste 0 -- -- 83
2020-09-10 01:00:00 17.9 0 Calma 5 Sudeste 0 -- -- 83
2020-09-10 00:00:00 18.1 0 Calma 3 Sudeste 0 -- -- 83
2020-09-09 23:00:00 18.8 2 Nordeste 5 Sudeste 0 -- -- 82
2020-09-09 22:00:00 19.9 0 Calma 4 Norte 0 -- -- 78
2020-09-09 21:00:00 21.1 0 Calma 11 Sudeste 0 -- -- 72
2020-09-09 20:00:00 22.5 3 Sur 12 Sur 0 -- -- 65
2020-09-09 19:00:00 23.7 5 Sudeste 14 Este 0 -- -- 58
2020-09-09 18:00:00 24.9 6 Sur 20 Noroeste 0 -- -- 52
2020-09-09 17:00:00 26.6 6 Nordeste 19 Oeste 0 -- -- 45
2020-09-09 16:00:00 25.8 9 Oeste 19 Noroeste 0 -- -- 47
2020-09-09 15:00:00 23.6 4 Noroeste 17 Oeste 0 -- -- 53
2020-09-09 14:00:00 22.6 4 Oeste 19 Noroeste 0 -- -- 58
2020-09-09 13:00:00 21.5 7 Noroeste 18 Noroeste 0 -- -- 64
2020-09-09 12:00:00 22.3 7 Noroeste 22 Noroeste 0 -- -- 60
2020-09-09 11:00:00 20.3 2 Sudoeste 11 Oeste 0 -- -- 67
2020-09-09 10:00:00 20.4 4 Oeste 13 Sudoeste 0 -- -- 65
2020-09-09 09:00:00 18.7 0 Calma 5 Sudeste 0 -- -- 68
2020-09-09 08:00:00 17.2 3 Noroeste 5 Sudeste 0 -- -- 74
2020-09-09 07:00:00 17.2 2 Sur 6 Sudeste 0 -- -- 74
2020-09-09 06:00:00 17.5 0 Calma 5 Este 0 -- -- 72
2020-09-09 05:00:00 17.6 0 Calma 6 Norte 0 -- -- 75
2020-09-09 04:00:00 17.8 0 Calma 7 Sur 0 -- -- 69
2020-09-09 03:00:00 17.9 0 Calma 7 Nordeste 0 -- -- 68
2020-09-09 02:00:00 17.5 0 Calma 4 Noroeste 0 -- -- 68
2020-09-09 01:00:00 18.1 0 Calma 7 Este 0 -- -- 64
2020-09-09 00:00:00 19.1 0 Calma 7 Norte 0 -- -- 63
2020-09-08 23:00:00 20.6 6 Nordeste 10 Nordeste 0 -- -- 60
2020-09-08 22:00:00 21.6 2 Sur 8 Norte 0 -- -- 53
2020-09-08 21:00:00 22.1 3 Este 12 Sudeste 0 -- -- 54
2020-09-08 20:00:00 22.9 4 Sur 19 Sudeste 0 -- -- 51
2020-09-08 19:00:00 23.6 6 Sudeste 19 Sur 0 -- -- 47
2020-09-08 18:00:00 24.6 4 Sudeste 16 Sudoeste 0 -- -- 43
2020-09-08 17:00:00 26.4 7 Noroeste 23 Sudeste 0 -- -- 38
2020-09-08 16:00:00 27.5 6 Oeste 21 Noroeste 0 -- -- 32
2020-09-08 15:00:00 26.7 6 Sudoeste 22 Noroeste 0 -- -- 34
2020-09-08 14:00:00 25 8 Sur 22 Sur 0 -- -- 38
2020-09-08 13:00:00 23.5 7 Oeste 19 Oeste 0 -- -- 43
2020-09-08 12:00:00 21.6 5 Sudoeste 13 Oeste 0 -- -- 49
2020-09-08 11:00:00 19.3 4 Sudoeste 11 Oeste 0 -- -- 55
2020-09-08 10:00:00 15.8 3 Este 15 Norte 0 -- -- 64
2020-09-08 09:00:00 13.7 0 Calma 6 Norte 0 -- -- 70
2020-09-08 08:00:00 13.8 0 Calma 9 Nordeste 0 -- -- 68
2020-09-08 07:00:00 14.4 4 Nordeste 12 Este 0 -- -- 65
2020-09-08 06:00:00 14.4 2 Nordeste 10 Nordeste 0 -- -- 66
2020-09-08 05:00:00 14.2 2 Nordeste 11 Nordeste 0 -- -- 70
2020-09-08 04:00:00 14.3 0 Calma 4 Sudeste 0 -- -- 76
2020-09-08 03:00:00 15.3 2 Sudeste 5 Oeste 0 -- -- 77
2020-09-08 02:00:00 16.4 3 Sudeste 15 Sur 0 -- -- 72
2020-09-08 01:00:00 17.3 7 Sudeste 17 Este 0 -- -- 71
2020-09-08 00:00:00 18.8 4 Sur 14 Sudeste 0 -- -- 71
2020-09-07 23:00:00 19.3 6 Sudeste 18 Este 0 -- -- 69
2020-09-07 22:00:00 19.6 8 Sudeste 21 Sudeste 0 -- -- 67
2020-09-07 21:00:00 20.7 11 Sudeste 21 Este 0 -- -- 60
2020-09-07 20:00:00 23.1 5 Sudoeste 18 Sudoeste 0 -- -- 48
2020-09-07 19:00:00 26.8 6 Sudoeste 21 Oeste 0 -- -- 29
2020-09-07 18:00:00 26.9 5 Oeste 21 Oeste 0 -- -- 30
2020-09-07 17:00:00 26.3 6 Norte 19 Nordeste 0 -- -- 34
2020-09-07 16:00:00 25.8 4 Oeste 20 Oeste 0 -- -- 35
2020-09-07 15:00:00 24.5 5 Sur 26 Noroeste 0 -- -- 39
2020-09-07 14:00:00 23.3 6 Sudoeste 17 Sur 0 -- -- 41
2020-09-07 13:00:00 21.8 6 Oeste 18 Noroeste 0 -- -- 45
2020-09-07 12:00:00 20.4 6 Noroeste 15 Sudoeste 0 -- -- 48
2020-09-07 11:00:00 18.5 7 Sur 14 Sur 0 -- -- 53
2020-09-07 10:00:00 15.5 5 Norte 12 Oeste 0 -- -- 62
2020-09-07 09:00:00 14.4 3 Este 8 Sudeste 0 -- -- 66
2020-09-07 08:00:00 14.6 3 Sudeste 10 Sudeste 0 -- -- 64
2020-09-07 07:00:00 15.1 4 Noroeste 13 Sudoeste 0 -- -- 63
2020-09-07 06:00:00 15.8 5 Nordeste 17 Sudoeste 0 -- -- 60
2020-09-07 05:00:00 16.5 6 Oeste 24 Oeste 0 -- -- 60
2020-09-07 04:00:00 16.7 6 Noroeste 18 Sudoeste 0 -- -- 61
2020-09-07 03:00:00 16.7 4 Oeste 16 Sudoeste 0 -- -- 59
2020-09-07 02:00:00 17.6 6 Noroeste 20 Oeste 0 -- -- 56
2020-09-07 01:00:00 18.8 6 Noroeste 18 Sudeste 0 -- -- 54
2020-09-07 00:00:00 19.9 5 Sur 16 Sudoeste 0 -- -- 50
2020-09-06 23:00:00 21.3 6 Noroeste 23 Sudoeste 0 -- -- 46
2020-09-06 22:00:00 22.5 3 Sudoeste 21 Sudoeste 0 -- -- 46
2020-09-06 21:00:00 23.5 5 Oeste 12 Sur 0 -- -- 47
2020-09-06 20:00:00 25.1 4 Sur 16 Sudoeste 0 -- -- 45
2020-09-06 19:00:00 27.7 6 Oeste 22 Sur 0 -- -- 40
2020-09-06 18:00:00 28.1 8 Oeste 27 Oeste 0 -- -- 41
2020-09-06 17:00:00 28.4 6 Sudoeste 24 Sudoeste 0 -- -- 41
2020-09-06 16:00:00 27.8 6 Sudoeste 31 Sudoeste 0 -- -- 41
2020-09-06 15:00:00 27.3 8 Sudoeste 24 Oeste 0 -- -- 43
2020-09-06 14:00:00 26.1 6 Sudoeste 21 Oeste 0 -- -- 46
2020-09-06 13:00:00 24.5 6 Oeste 20 Sudoeste 0 -- -- 50
2020-09-06 12:00:00 22.8 8 Norte 21 Oeste 0 -- -- 56
2020-09-06 11:00:00 21.3 6 Noroeste 18 Oeste 0 -- -- 60
2020-09-06 10:00:00 18.8 5 Sudoeste 15 Noroeste 0 -- -- 68
2020-09-06 09:00:00 17.4 4 Sur 10 Sudoeste 0 -- -- 72
2020-09-06 08:00:00 17.2 2 Oeste 12 Sudeste 0 -- -- 73
2020-09-06 07:00:00 17.5 3 Sudoeste 16 Nordeste 0 -- -- 72
2020-09-06 06:00:00 17.8 2 Norte 9 Sudoeste 0 -- -- 72
2020-09-06 05:00:00 18.5 3 Norte 12 Norte 0 -- -- 71
2020-09-06 04:00:00 19.2 3 Sudoeste 11 Nordeste 0 -- -- 69
2020-09-06 03:00:00 20 4 Noroeste 9 Sudoeste 0 -- -- 67
2020-09-06 02:00:00 20.4 0 Calma 6 Sudeste 0 -- -- 79
2020-09-06 01:00:00 21.3 2 Noroeste 13 Sudeste 0 -- -- 72
2020-09-06 00:00:00 22.5 4 Sur 17 Sudeste 0 -- -- 64
2020-09-05 23:00:00 22.5 9 Sur 27 Sudeste 0 -- -- 68
2020-09-05 22:00:00 22.7 6 Sur 23 Sudeste 0 -- -- 73
2020-09-05 21:00:00 23.7 6 Sur 22 Este 0 -- -- 69
2020-09-05 20:00:00 25.7 9 Sur 27 Este 0 -- -- 61
2020-09-05 19:00:00 29.3 8 Sudeste 23 Sudeste 0 -- -- 54
2020-09-05 18:00:00 30.9 8 Sudoeste 22 Oeste 0 -- -- 49
2020-09-05 17:00:00 32 5 Oeste 18 Noroeste 0 -- -- 42
2020-09-05 16:00:00 31.9 4 Noroeste 18 Oeste 0 -- -- 41
2020-09-05 15:00:00 31.3 6 Oeste 18 Oeste 0 -- -- 43
2020-09-05 14:00:00 30 6 Sudoeste 17 Sudoeste 0 -- -- 46
2020-09-05 13:00:00 28.6 5 Noroeste 16 Sudoeste 0 -- -- 47
2020-09-05 12:00:00 26.9 5 Oeste 15 Sudoeste 0 -- -- 54
2020-09-05 11:00:00 24.8 5 Oeste 15 Este 0 -- -- 63
2020-09-05 10:00:00 22.3 7 Sur 19 Sudeste 0 -- -- 71
2020-09-05 09:00:00 20.4 2 Noroeste 13 Sur 0 -- -- 78
2020-09-05 08:00:00 20.4 6 Este 16 Sudeste 0 -- -- 77
2020-09-05 07:00:00 20.5 5 Sudeste 19 Sur 0 -- -- 74
2020-09-05 06:00:00 20.7 5 Sur 19 Sudeste 0 -- -- 71
2020-09-05 05:00:00 21 9 Sudeste 22 Este 0 -- -- 69
2020-09-05 04:00:00 21.1 4 Sudeste 19 Este 0 -- -- 64
2020-09-05 03:00:00 21.6 5 Norte 20 Nordeste 0 -- -- 57
2020-09-05 02:00:00 21.8 4 Sur 19 Este 0 -- -- 46
2020-09-05 01:00:00 22.4 5 Este 27 Sur 0 -- -- 44
2020-09-05 00:00:00 22.2 5 Nordeste 19 Sudeste 0 -- -- 49
2020-09-04 23:00:00 22.5 6 Sudeste 21 Este 0 -- -- 53
2020-09-04 22:00:00 22.7 9 Sur 28 Este 0 -- -- 59
2020-09-04 21:00:00 23.5 5 Sur 28 Sur 0 -- -- 64
2020-09-04 20:00:00 25.4 9 Sur 27 Sudeste 0 -- -- 55
2020-09-04 19:00:00 27.7 9 Sudeste 26 Sudeste 0 -- -- 53
2020-09-04 18:00:00 29.8 9 Sudeste 28 Sudeste 0 -- -- 49
2020-09-04 17:00:00 30.5 7 Sur 22 Sudoeste 0 -- -- 43
2020-09-04 16:00:00 30.9 8 Sur 22 Sur 0 -- -- 44
2020-09-04 15:00:00 30.7 5 Sur 19 Sudeste 0 -- -- 44
2020-09-04 14:00:00 29.5 6 Oeste 19 Sur 0 -- -- 45
2020-09-04 13:00:00 28.4 6 Sudoeste 21 Noroeste 0 -- -- 46
2020-09-04 12:00:00 27 5 Oeste 19 Sudeste 0 -- -- 50
2020-09-04 11:00:00 25.4 5 Noroeste 19 Sudeste 0 -- -- 55
2020-09-04 10:00:00 22.5 4 Sudeste 12 Este 0 -- -- 64
2020-09-04 09:00:00 20.1 0 Calma 14 Este 0 -- -- 69
2020-09-04 08:00:00 20.1 7 Sudeste 15 Sudeste 0 -- -- 65
2020-09-04 07:00:00 19.8 4 Sur 12 Sudeste 0 -- -- 57
2020-09-04 06:00:00 19.8 4 Sudeste 14 Sudeste 0 -- -- 57
2020-09-04 05:00:00 20.4 2 Nordeste 16 Sur 0 -- -- 60
2020-09-04 04:00:00 21.2 5 Sudeste 18 Sudeste 0 -- -- 59
2020-09-04 03:00:00 21.7 7 Sudeste 17 Sudeste 0 -- -- 57
2020-09-04 02:00:00 21.9 8 Sudeste 18 Sur 0 -- -- 54
2020-09-04 01:00:00 21.5 6 Sudeste 14 Sudeste 0 -- -- 55
2020-09-04 00:00:00 21.6 5 Sudeste 26 Sudeste 0 -- -- 60
2020-09-03 23:00:00 21.7 6 Sudeste 26 Nordeste 0 -- -- 67
2020-09-03 22:00:00 22 5 Noroeste 17 Sudoeste 0 -- -- 73
2020-09-03 21:00:00 23.1 5 Oeste 20 Este 0 -- -- 71
2020-09-03 20:00:00 25 5 Norte 21 Sur 0 -- -- 62
2020-09-03 19:00:00 27.4 8 Sudoeste 32 Sudoeste 0 -- -- 56
2020-09-03 18:00:00 29.5 9 Sur 23 Sudoeste 0 -- -- 49
2020-09-03 17:00:00 31.6 7 Oeste 16 Oeste 0 -- -- 26
2020-09-03 16:00:00 30.8 6 Oeste 18 Oeste 0 -- -- 26
2020-09-03 15:00:00 29.4 4 Sudoeste 16 Oeste 0 -- -- 27
2020-09-03 14:00:00 28.2 5 Sur 14 Oeste 0 -- -- 30
2020-09-03 13:00:00 26.3 6 Noroeste 12 Oeste 0 -- -- 34
2020-09-03 12:00:00 24.2 4 Sur 10 Sudeste 0 -- -- 41
2020-09-03 11:00:00 21.2 6 Oeste 13 Sur 0 -- -- 50
2020-09-03 10:00:00 17.5 2 Nordeste 12 Nordeste 0 -- -- 62
2020-09-03 09:00:00 14.5 5 Sudeste 6 Sudeste 0 -- -- 74
2020-09-03 08:00:00 14 0 Calma 2 Nordeste 0 -- -- 76
2020-09-03 07:00:00 14.2 0 Calma 3 Sur 0 -- -- 75
2020-09-03 06:00:00 15 0 Calma 2 Este 0 -- -- 76
2020-09-03 05:00:00 16.5 0 Calma 5 Sudeste 0 -- -- 83
2020-09-03 04:00:00 17.9 0 Calma 5 Sur 0 -- -- 82
2020-09-03 03:00:00 19.3 3 Oeste 18 Este 0 -- -- 77
2020-09-03 02:00:00 20.1 5 Sudeste 18 Sudeste 0 -- -- 75
2020-09-03 01:00:00 20.2 6 Sudeste 18 Sudeste 0 -- -- 74
2020-09-03 00:00:00 20.6 4 Oeste 18 Sudeste 0 -- -- 72
2020-09-02 23:00:00 20.7 8 Sudeste 21 Sudeste 0 -- -- 73
2020-09-02 22:00:00 21 8 Sudeste 21 Este 0 -- -- 72
2020-09-02 21:00:00 21.8 7 Sudeste 20 Sudeste 0 -- -- 69
2020-09-02 20:00:00 23.8 9 Sur 23 Sudeste 0 -- -- 61
2020-09-02 19:00:00 27.3 6 Sur 19 Oeste 0 -- -- 47
2020-09-02 18:00:00 28.6 5 Noroeste 21 Sur 0 -- -- 29
2020-09-02 17:00:00 28.4 5 Oeste 21 Oeste 0 -- -- 31
2020-09-02 16:00:00 27.6 8 Oeste 24 Sudoeste 0 -- -- 33
2020-09-02 15:00:00 26.7 9 Noroeste 22 Sur 0 -- -- 36
2020-09-02 14:00:00 25.3 6 Sur 18 Sur 0 -- -- 40
2020-09-02 13:00:00 24 6 Oeste 17 Sur 0 -- -- 45
2020-09-02 12:00:00 22.2 5 Noroeste 19 Oeste 0 -- -- 50
2020-09-02 11:00:00 20.2 6 Oeste 20 Oeste 0 -- -- 56
2020-09-02 10:00:00 17.5 5 Sudoeste 16 Sur 0 -- -- 65
2020-09-02 09:00:00 15.2 4 Sudeste 9 Este 0 -- -- 73
2020-09-02 08:00:00 14.1 2 Sur 7 Sudeste 0 -- -- 78
2020-09-02 07:00:00 14.8 0 Calma 6 Sudeste 0 -- -- 75
2020-09-02 06:00:00 15.5 0 Calma 8 Sudeste 0 -- -- 72
2020-09-02 05:00:00 17.2 3 Sudeste 8 Sudoeste 0 -- -- 65
2020-09-02 04:00:00 18.2 2 Sudeste 13 Norte 0 -- -- 64
2020-09-02 03:00:00 18.7 5 Sudoeste 17 Sudeste 0 -- -- 79
2020-09-02 02:00:00 17.3 0 Calma 4 Sur 0 -- -- 82
2020-09-02 01:00:00 18.3 0 Calma 4 Sudeste 0 -- -- 79
2020-09-02 00:00:00 19.5 0 Calma 6 Sur 0 -- -- 76
2020-09-01 23:00:00 20.9 3 Nordeste 10 Sudeste 0 -- -- 72
2020-09-01 22:00:00 21.6 3 Sur 8 Sudeste 0 -- -- 68
2020-09-01 21:00:00 22.7 3 Sudeste 12 Sudeste 0 -- -- 62
2020-09-01 20:00:00 23.8 5 Sur 13 Sur 0 -- -- 60
2020-09-01 19:00:00 25.7 2 Este 10 Sudoeste 0 -- -- 31
2020-09-01 18:00:00 26.7 4 Oeste 18 Sudoeste 0 -- -- 30
2020-09-01 17:00:00 27 8 Oeste 21 Oeste 0 -- -- 30
2020-09-01 16:00:00 27.7 5 Sudoeste 16 Noroeste 0 -- -- 29
2020-09-01 15:00:00 27.2 6 Noroeste 13 Oeste 0 -- -- 30
2020-09-01 14:00:00 25.4 4 Sudoeste 12 Oeste 0 -- -- 33
2020-09-01 13:00:00 25.5 6 Noroeste 13 Noroeste 0 -- -- 39
2020-09-01 12:00:00 22 2 Sur 12 Oeste 0 -- -- 43
2020-09-01 11:00:00 20 4 Oeste 9 Oeste 0 -- -- 48
2020-09-01 10:00:00 18.1 2 Noroeste 6 Sur 0 -- -- 56
2020-09-01 09:00:00 14.8 0 Calma 4 Sudeste 0 -- -- 70
2020-09-01 08:00:00 14.2 2 Noroeste 4 Noroeste 0 -- -- 70
2020-09-01 07:00:00 14.1 0 Calma 4 Sudeste 0 -- -- 70
2020-09-01 06:00:00 15.2 0 Calma 3 Sudeste 0 -- -- 66
2020-09-01 05:00:00 16.3 0 Calma 5 Sudeste 0 -- -- 62
2020-09-01 04:00:00 18 2 Nordeste 7 Sur 0 -- -- 57
2020-09-01 03:00:00 18.8 3 Norte 14 Sudeste 0 -- -- 54
2020-09-01 02:00:00 20.1 6 Sudeste 18 Sudeste 0 -- -- 47
2020-09-01 01:00:00 20.2 3 Sur 16 Sudeste 0 -- -- 50
2020-09-01 00:00:00 19.9 8 Sudeste 15 Este 0 -- -- 54
2020-08-31 23:00:00 19.8 2 Norte 9 Sudeste 0 -- -- 54
2020-08-31 22:00:00 20.9 7 Sudeste 15 Este 0 -- -- 51
2020-08-31 21:00:00 21.5 2 Sur 9 Sudeste 0 -- -- 45
2020-08-31 20:00:00 25 3 Nordeste 16 Noroeste 0 -- -- 26
2020-08-31 19:00:00 27.3 4 Sudoeste 16 Oeste 0 -- -- 25
2020-08-31 18:00:00 27.4 6 Oeste 20 Noroeste 0 -- -- 26
2020-08-31 17:00:00 26.8 6 Sudoeste 21 Oeste 0 -- -- 28
2020-08-31 16:00:00 26 6 Oeste 24 Oeste 0 -- -- 31
2020-08-31 15:00:00 25 5 Oeste 23 Oeste 0 -- -- 33
2020-08-31 14:00:00 22.8 10 Oeste 25 Sudoeste 0 -- -- 38
2020-08-31 13:00:00 21.4 6 Noroeste 21 Oeste 0 -- -- 45
2020-08-31 12:00:00 19.4 7 Sudoeste 19 Norte 0 -- -- 51
2020-08-31 11:00:00 17.6 7 Oeste 19 Oeste 0 -- -- 57
2020-08-31 10:00:00 14.6 5 Oeste 17 Noroeste 0 -- -- 69
2020-08-31 09:00:00 12.4 3 Sudoeste 9 Sur 0 -- -- 75
2020-08-31 08:00:00 11.2 0 Calma 5 Norte 0 -- -- 78
2020-08-31 07:00:00 11.5 0 Calma 5 Norte 0 -- -- 76
2020-08-31 06:00:00 12.7 2 Norte 14 Norte 0 -- -- 71
2020-08-31 05:00:00 13.5 3 Sur 12 Oeste 0 -- -- 68
2020-08-31 04:00:00 14 5 Noroeste 15 Norte 0 -- -- 66
2020-08-31 03:00:00 14.6 3 Sudeste 10 Sur 0 -- -- 63
2020-08-31 02:00:00 15.2 3 Sudeste 9 Este 0 -- -- 61
2020-08-31 01:00:00 15.8 3 Sudeste 10 Sur 0 -- -- 58
2020-08-31 00:00:00 15.7 0 Calma 5 Sudoeste 0 -- -- 59
2020-08-30 23:00:00 16.8 3 Norte 10 Nordeste 0 -- -- 55
2020-08-30 22:00:00 17.8 2 Sudeste 6 Sudeste 0 -- -- 52
2020-08-30 21:00:00 20.1 2 Sur 18 Oeste 0 -- -- 46
2020-08-30 20:00:00 22 5 Oeste 22 Sur 0 -- -- 41
2020-08-30 19:00:00 24.1 7 Oeste 28 Oeste 0 -- -- 37
2020-08-30 18:00:00 24.8 7 Oeste 27 Sudoeste 0 -- -- 35
2020-08-30 17:00:00 25.1 6 Sudoeste 23 Sur 0 -- -- 35
2020-08-30 16:00:00 24.5 10 Noroeste 27 Oeste 0 -- -- 36
2020-08-30 15:00:00 23.8 9 Oeste 28 Norte 0 -- -- 39
2020-08-30 14:00:00 22.1 10 Sudoeste 31 Sudoeste 0 -- -- 43
2020-08-30 13:00:00 20.9 9 Noroeste 33 Sur 0 -- -- 48
2020-08-30 12:00:00 19.5 6 Oeste 22 Sudeste 0 -- -- 52
2020-08-30 11:00:00 17.2 6 Sudoeste 28 Noroeste 0 -- -- 57
2020-08-30 10:00:00 14.8 9 Sudoeste 25 Sur 0 -- -- 65
2020-08-30 09:00:00 13.1 5 Oeste 14 Sur 0 -- -- 70
2020-08-30 08:00:00 12.6 3 Sudoeste 10 Noroeste 0 -- -- 72
2020-08-30 07:00:00 12.9 3 Sur 13 Oeste 0 -- -- 71
2020-08-30 06:00:00 13.2 4 Este 15 Oeste 0 -- -- 72
2020-08-30 05:00:00 13.7 4 Sudeste 19 Sudoeste 0 -- -- 72
2020-08-30 04:00:00 14.3 6 Sur 18 Sudoeste 0 -- -- 71
2020-08-30 03:00:00 15 5 Sur 20 Sur 0 -- -- 70
2020-08-30 02:00:00 15.8 4 Sudoeste 16 Sudoeste 0 -- -- 64
2020-08-30 01:00:00 16.7 6 Sur 22 Sudoeste 0 -- -- 60
2020-08-30 00:00:00 17.4 5 Sudoeste 19 Sur 0 -- -- 56
2020-08-29 23:00:00 18.7 5 Oeste 20 Sudoeste 0 -- -- 51
2020-08-29 22:00:00 20.3 6 Oeste 21 Oeste 0 -- -- 46
2020-08-29 21:00:00 21.8 7 Sur 26 Sur 0 -- -- 40
2020-08-29 20:00:00 23.6 9 Sudoeste 29 Noroeste 0 -- -- 36
2020-08-29 19:00:00 24.2 6 Sur 23 Sudoeste 0 -- -- 35
2020-08-29 18:00:00 25 8 Sudoeste 27 Oeste 0 -- -- 34
2020-08-29 17:00:00 25.6 8 Sur 31 Sudoeste 0 -- -- 35
2020-08-29 16:00:00 23.4 7 Noroeste 29 Sur 0 -- -- 41
2020-08-29 15:00:00 22.4 6 Sudoeste 22 Sudoeste 0 -- -- 45
2020-08-29 14:00:00 23 8 Oeste 29 Sudoeste 0 -- -- 45
2020-08-29 13:00:00 21.6 10 Noroeste 31 Oeste 0 -- -- 48
2020-08-29 12:00:00 21 9 Sudoeste 23 Sudoeste 0 -- -- 50
2020-08-29 11:00:00 19.3 8 Sudoeste 26 Sudoeste 0 -- -- 55
2020-08-29 10:00:00 17.1 6 Noroeste 24 Sudoeste 0 -- -- 61
2020-08-29 09:00:00 16.7 5 Oeste 15 Sur 0 -- -- 61
2020-08-29 08:00:00 16.6 3 Sudoeste 15 Oeste 0 -- -- 63
2020-08-29 07:00:00 16.9 6 Sudoeste 13 Norte 0 -- -- 62
2020-08-29 06:00:00 17.2 5 Noroeste 19 Sudoeste 0 -- -- 62
2020-08-29 05:00:00 17.5 4 Noroeste 21 Oeste 0 -- -- 61
2020-08-29 04:00:00 17.8 6 Noroeste 21 Noroeste 0 -- -- 60
2020-08-29 03:00:00 18.1 5 Noroeste 19 Oeste 0 -- -- 64
2020-08-29 02:00:00 18.4 6 Noroeste 22 Sudoeste 0 -- -- 64
2020-08-29 01:00:00 19.2 8 Sudoeste 22 Oeste 0 -- -- 62
2020-08-29 00:00:00 20.3 6 Oeste 23 Noroeste 0 -- -- 62
2020-08-28 23:00:00 21.9 5 Noroeste 19 Noroeste 0 -- -- 58
2020-08-28 22:00:00 23.7 4 Sudeste 12 Oeste 0 -- -- 67
2020-08-28 21:00:00 24.4 2 Nordeste 20 Sudeste 0 -- -- 71
2020-08-28 20:00:00 25.2 9 Este 22 Sudeste 0.2 -- -- 73
2020-08-28 19:00:00 26.7 6 Sur 18 Sudeste 0 -- -- 73
2020-08-28 18:00:00 28.8 5 Sur 16 Sudeste 0 -- -- 64
2020-08-28 17:00:00 30.9 6 Sudoeste 16 Este 0 -- -- 56
2020-08-28 16:00:00 30.1 4 Oeste 16 Noroeste 0 -- -- 55
2020-08-28 15:00:00 29 5 Noroeste 17 Oeste 0 -- -- 58
2020-08-28 14:00:00 28.9 5 Noroeste 12 Oeste 0 -- -- 60
2020-08-28 13:00:00 27 3 Oeste 13 Oeste 0 -- -- 63
2020-08-28 12:00:00 25.8 4 Noroeste 14 Oeste 0 -- -- 67
2020-08-28 11:00:00 25.8 5 Oeste 15 Este 0 -- -- 72
2020-08-28 10:00:00 24.8 6 Sur 16 Sudeste 0 -- -- 76
2020-08-28 09:00:00 24.1 8 Sudoeste 18 Sur 0 -- -- 78
2020-08-28 08:00:00 23.3 5 Oeste 19 Este 0 -- -- 81
2020-08-28 07:00:00 23.1 4 Sudeste 19 Sudoeste 0 -- -- 80
2020-08-28 06:00:00 22.9 3 Norte 19 Sudeste 0 -- -- 81
2020-08-28 05:00:00 23 6 Sur 16 Sudoeste 0 -- -- 80
2020-08-28 04:00:00 23.5 3 Noroeste 12 Sur 0 -- -- 77
2020-08-28 03:00:00 24.9 5 Oeste 20 Sudoeste 0 -- -- 71
2020-08-28 02:00:00 25.6 9 Sur 23 Sudeste 0 -- -- 67
2020-08-28 01:00:00 24.6 9 Sudeste 24 Sudeste 0 -- -- 78
2020-08-28 00:00:00 24.8 13 Sudeste 28 Sudeste 0 -- -- 80
2020-08-27 23:00:00 25.3 12 Sudeste 25 Sur 0 -- -- 78
2020-08-27 22:00:00 25.8 13 Sudeste 24 Sudeste 0 -- -- 78
2020-08-27 21:00:00 27.2 8 Sudeste 21 Sur 0 -- -- 72
2020-08-27 20:00:00 29.5 11 Sudeste 22 Sudeste 0 -- -- 63
2020-08-27 19:00:00 31.7 7 Sur 25 Noroeste 0 -- -- 57
2020-08-27 18:00:00 33.1 5 Oeste 21 Sur 0 -- -- 53
2020-08-27 17:00:00 32.9 11 Sur 21 Sur 0 -- -- 53
2020-08-27 16:00:00 33.1 8 Sur 29 Oeste 0 -- -- 53
2020-08-27 15:00:00 34.1 6 Sudeste 17 Noroeste 0 -- -- 47
2020-08-27 14:00:00 32.8 6 Noroeste 15 Noroeste 0 -- -- 49
2020-08-27 13:00:00 31.3 5 Sur 15 Noroeste 0 -- -- 52
2020-08-27 12:00:00 29.7 4 Sudoeste 12 Sudoeste 0 -- -- 57
2020-08-27 11:00:00 28 3 Noroeste 12 Oeste 0 -- -- 63
2020-08-27 10:00:00 24.9 3 Sudoeste 8 Sur 0 -- -- 74
2020-08-27 09:00:00 22.2 0 Calma 4 Sudeste 0 -- -- 85
2020-08-27 08:00:00 21.8 0 Calma 3 Sudeste 0 -- -- 85
2020-08-27 07:00:00 22.4 0 Calma 7 Sudeste 0 -- -- 83
2020-08-27 06:00:00 23.1 3 Noroeste 10 Sur 0 -- -- 80
2020-08-27 05:00:00 24.6 4 Sudoeste 15 Sudeste 0 -- -- 75
2020-08-27 04:00:00 24.9 6 Sudeste 20 Este 0 -- -- 74
2020-08-27 03:00:00 25.3 4 Sur 18 Sudeste 0 -- -- 68
2020-08-27 02:00:00 25.9 8 Sur 22 Sudeste 0 -- -- 66
2020-08-27 01:00:00 26.1 7 Sur 19 Este 0 -- -- 73
2020-08-27 00:00:00 25.8 6 Sur 24 Sudeste 0 -- -- 71
2020-08-26 23:00:00 26.2 7 Sur 17 Sudoeste 0 -- -- 72
2020-08-26 22:00:00 26.3 7 Sur 19 Sudeste 0 -- -- 73
2020-08-26 21:00:00 27.1 6 Sudeste 23 Sudoeste 0 -- -- 70
2020-08-26 20:00:00 29.3 10 Sudeste 27 Sudeste 0 -- -- 63
2020-08-26 19:00:00 32.3 7 Sudoeste 22 Sudeste 0 -- -- 55
2020-08-26 18:00:00 33.6 5 Sudoeste 22 Sudoeste 0 -- -- 52
2020-08-26 17:00:00 34.1 6 Sudoeste 21 Sur 0 -- -- 49
2020-08-26 16:00:00 33.3 8 Sur 23 Sudoeste 0 -- -- 50
2020-08-26 15:00:00 32.4 8 Sudoeste 24 Sudoeste 0 -- -- 53
2020-08-26 14:00:00 31.8 8 Sudoeste 21 Sur 0 -- -- 55
2020-08-26 13:00:00 30.6 6 Sudoeste 19 Sudoeste 0 -- -- 57
2020-08-26 12:00:00 29.3 4 Oeste 19 Este 0 -- -- 60
2020-08-26 11:00:00 27.3 5 Noroeste 19 Sudoeste 0 -- -- 68
2020-08-26 10:00:00 25.5 6 Sudeste 19 Sudeste 0 -- -- 75
2020-08-26 09:00:00 23.9 5 Sur 17 Este 0 -- -- 80
2020-08-26 08:00:00 23.7 6 Sur 18 Sudeste 0 -- -- 80
2020-08-26 07:00:00 23.8 8 Sudeste 19 Sudeste 0 -- -- 78
2020-08-26 06:00:00 24.2 6 Sur 16 Sur 0 -- -- 68
2020-08-26 05:00:00 25.1 8 Sur 22 Sudeste 0 -- -- 60
2020-08-26 04:00:00 24.9 6 Oeste 20 Sudeste 0 -- -- 54
2020-08-26 03:00:00 27.3 6 Sudeste 24 Sudeste 0 -- -- 44
2020-08-26 02:00:00 26.8 9 Sudeste 25 Sudeste 0 -- -- 48
2020-08-26 01:00:00 26.6 10 Sudeste 24 Sudeste 0 -- -- 54
2020-08-26 00:00:00 26.8 7 Sudeste 22 Sur 0 -- -- 59
2020-08-25 23:00:00 27.1 7 Sur 19 Sudeste 0 -- -- 64
2020-08-25 22:00:00 27.8 5 Sur 21 Sudeste 0 -- -- 64
2020-08-25 21:00:00 28.3 9 Sudeste 20 Sudeste 0 -- -- 66
2020-08-25 20:00:00 30.4 9 Sudeste 21 Sudoeste 0 -- -- 59
2020-08-25 19:00:00 33.5 7 Sur 24 Oeste 0 -- -- 52
2020-08-25 18:00:00 35 9 Oeste 23 Sur 0 -- -- 47
2020-08-25 17:00:00 36.5 8 Oeste 17 Noroeste 0 -- -- 41
2020-08-25 16:00:00 35.7 5 Sudeste 17 Oeste 0 -- -- 37
2020-08-25 15:00:00 34.4 5 Este 15 Noroeste 0 -- -- 38
2020-08-25 14:00:00 32.9 7 Noroeste 18 Oeste 0.4 -- -- 44
2020-08-25 13:00:00 31.5 4 Sur 13 Sur 0 -- -- 52
2020-08-25 12:00:00 29.8 3 Oeste 10 Noroeste 0 -- -- 57
2020-08-25 11:00:00 27.9 3 Noroeste 11 Sudoeste 0 -- -- 63
2020-08-25 10:00:00 25 4 Oeste 14 Oeste 0 -- -- 73
2020-08-25 09:00:00 23.6 5 Sudeste 19 Este 0 -- -- 78
2020-08-25 08:00:00 23.2 6 Sudeste 19 Sur 0 -- -- 80
2020-08-25 07:00:00 23.3 4 Oeste 15 Sur 0 -- -- 80
2020-08-25 06:00:00 23.3 5 Sur 20 Sudeste 0 -- -- 79
2020-08-25 05:00:00 23.5 11 Sudeste 22 Sudeste 0 -- -- 79
2020-08-25 04:00:00 23.4 5 Sudeste 22 Sudeste 0 -- -- 79
2020-08-25 03:00:00 23.3 11 Sudeste 24 Sudeste 0 -- -- 72
2020-08-25 02:00:00 23.9 10 Sudeste 19 Este 0 -- -- 56
2020-08-25 01:00:00 23.9 9 Sudeste 19 Sudeste 0 -- -- 57
2020-08-25 00:00:00 24.5 6 Sudeste 21 Sudeste 0 -- -- 55
2020-08-24 23:00:00 24.6 8 Sudeste 21 Este 0 -- -- 55
2020-08-24 22:00:00 25.1 9 Sudeste 17 Sudeste 0 -- -- 55
2020-08-24 21:00:00 26.3 7 Sudeste 14 Este 0 -- -- 53
2020-08-24 20:00:00 29 7 Sudeste 16 Sudeste 0 -- -- 45
2020-08-24 19:00:00 31.7 4 Oeste 15 Noroeste 0 -- -- 35
2020-08-24 18:00:00 32.1 6 Noroeste 16 Noroeste 0 -- -- 34
2020-08-24 17:00:00 31.6 6 Sudoeste 18 Sudoeste 0 -- -- 34
2020-08-24 16:00:00 30.9 6 Oeste 21 Sudoeste 0 -- -- 34
2020-08-24 15:00:00 29.2 6 Norte 21 Oeste 0 -- -- 36
2020-08-24 14:00:00 26.9 4 Sudeste 16 Noroeste 0 -- -- 41
2020-08-24 13:00:00 25.8 4 Oeste 16 Oeste 0 -- -- 45
2020-08-24 12:00:00 23.6 5 Sudoeste 22 Oeste 0 -- -- 49
2020-08-24 11:00:00 21.8 7 Noroeste 19 Sudoeste 0 -- -- 57
2020-08-24 10:00:00 19.1 6 Noroeste 19 Sur 0 -- -- 66
2020-08-24 09:00:00 17.1 3 Sudeste 9 Este 0 -- -- 74
2020-08-24 08:00:00 16.4 3 Sudeste 10 Sudoeste 0 -- -- 76
2020-08-24 07:00:00 17.1 2 Sudeste 11 Sur 0 -- -- 72
2020-08-24 06:00:00 18 3 Sur 19 Sudoeste 0 -- -- 69
2020-08-24 05:00:00 18.9 4 Norte 14 Oeste 0 -- -- 66
2020-08-24 04:00:00 20 3 Sudeste 14 Oeste 0 -- -- 59
2020-08-24 03:00:00 20.6 3 Noroeste 16 Norte 0 -- -- 57
2020-08-24 02:00:00 20.2 2 Este 5 Este 0 -- -- 70
2020-08-24 01:00:00 21.4 2 Nordeste 6 Oeste 0 -- -- 79
2020-08-24 00:00:00 22.9 4 Oeste 19 Sudeste 0 -- -- 73
2020-08-23 23:00:00 23.7 6 Sudeste 14 Sudeste 0 -- -- 70
2020-08-23 22:00:00 24.6 6 Sur 15 Sur 0 -- -- 67
2020-08-23 21:00:00 26.2 6 Sur 17 Oeste 0 -- -- 58
2020-08-23 20:00:00 29.2 5 Sur 15 Sudoeste 0 -- -- 49
2020-08-23 19:00:00 31.6 8 Oeste 16 Noroeste 0 -- -- 41
2020-08-23 18:00:00 32.1 5 Oeste 15 Noroeste 0 -- -- 37
2020-08-23 17:00:00 31.6 6 Noroeste 18 Oeste 0 -- -- 39
2020-08-23 16:00:00 30 4 Este 19 Oeste 0 -- -- 41
2020-08-23 15:00:00 29.3 7 Oeste 24 Oeste 0 -- -- 42
2020-08-23 14:00:00 27.7 7 Noroeste 20 Noroeste 0 -- -- 42
2020-08-23 13:00:00 26.9 8 Oeste 19 Oeste 0 -- -- 44
2020-08-23 12:00:00 25.1 7 Oeste 24 Noroeste 0 -- -- 49
2020-08-23 11:00:00 23.4 6 Noroeste 17 Oeste 0 -- -- 55
2020-08-23 10:00:00 20.9 5 Este 15 Sudoeste 0 -- -- 62
2020-08-23 09:00:00 19.1 5 Sudoeste 12 Sudoeste 0 -- -- 68
2020-08-23 08:00:00 18.6 2 Nordeste 12 Norte 0 -- -- 70
2020-08-23 07:00:00 19 3 Norte 15 Sur 0 -- -- 68
2020-08-23 06:00:00 19.7 3 Oeste 12 Noroeste 0 -- -- 66
2020-08-23 05:00:00 20.5 4 Sudoeste 19 Sudoeste 0 -- -- 64
2020-08-23 04:00:00 21.4 4 Noroeste 13 Noroeste 0 -- -- 59
2020-08-23 03:00:00 22.4 4 Noroeste 12 Norte 0 -- -- 56
2020-08-23 02:00:00 23.3 0 Calma 10 Sudeste 0 -- -- 82
2020-08-23 01:00:00 24 3 Sur 9 Sudeste 0 -- -- 81
2020-08-23 00:00:00 24.5 0 Calma 5 Oeste 0 -- -- 78
2020-08-22 23:00:00 25.5 3 Oeste 9 Noroeste 0 -- -- 75
2020-08-22 22:00:00 26.6 3 Noroeste 14 Sudeste 0 -- -- 71
2020-08-22 21:00:00 28 6 Sudeste 17 Sudeste 0 -- -- 66
2020-08-22 20:00:00 30.6 5 Oeste 15 Noroeste 0 -- -- 57
2020-08-22 19:00:00 32.3 5 Oeste 24 Sudoeste 0 -- -- 52
2020-08-22 18:00:00 34.5 5 Sur 19 Oeste 0 -- -- 30
2020-08-22 17:00:00 34.4 6 Sudoeste 21 Sudoeste 0 -- -- 32
2020-08-22 16:00:00 33.9 7 Oeste 20 Oeste 0 -- -- 35
2020-08-22 15:00:00 32.8 7 Noroeste 16 Oeste 0 -- -- 37
2020-08-22 14:00:00 31.1 5 Oeste 21 Sur 0 -- -- 39
2020-08-22 13:00:00 30.2 6 Noroeste 16 Oeste 0 -- -- 41
2020-08-22 12:00:00 27.7 6 Oeste 16 Oeste 0 -- -- 47
2020-08-22 11:00:00 25.7 5 Sudoeste 12 Oeste 0 -- -- 53
2020-08-22 10:00:00 23.1 4 Noroeste 16 Noroeste 0 -- -- 62
2020-08-22 09:00:00 22 4 Noroeste 13 Oeste 0 -- -- 67
2020-08-22 08:00:00 21.6 4 Sudeste 10 Nordeste 0 -- -- 72
2020-08-22 07:00:00 21.9 3 Noroeste 10 Nordeste 0 -- -- 73
2020-08-22 06:00:00 22.1 2 Norte 9 Nordeste 0 -- -- 72
2020-08-22 05:00:00 22.8 3 Sudeste 12 Nordeste 0 -- -- 69
2020-08-22 04:00:00 23.3 2 Sudeste 9 Norte 0 -- -- 70
2020-08-22 03:00:00 23.8 0 Calma 10 Oeste 0 -- -- 79
2020-08-22 02:00:00 25.1 6 Oeste 14 Sur 0 -- -- 75
2020-08-22 01:00:00 25.8 4 Oeste 17 Este 0 -- -- 73
2020-08-22 00:00:00 25.9 8 Sudeste 17 Sudeste 0 -- -- 74
2020-08-21 23:00:00 26.7 4 Sur 17 Sudeste 0 -- -- 74
2020-08-21 22:00:00 28 4 Sur 14 Este 0 -- -- 69
2020-08-21 21:00:00 29.6 7 Sudeste 22 Sudeste 0 -- -- 63
2020-08-21 20:00:00 31.9 7 Sudeste 19 Sudeste 0 -- -- 57
2020-08-21 19:00:00 32.8 4 Este 24 Sudeste 0 -- -- 54
2020-08-21 18:00:00 34.7 8 Oeste 28 Oeste 0 -- -- 50
2020-08-21 17:00:00 35.6 8 Sudoeste 21 Sudoeste 0 -- -- 47
2020-08-21 16:00:00 36.6 6 Oeste 18 Sudoeste 0 -- -- 36
2020-08-21 15:00:00 35.6 6 Sur 17 Sudeste 0 -- -- 41
2020-08-21 14:00:00 34.3 6 Noroeste 14 Oeste 0 -- -- 42
2020-08-21 13:00:00 32.5 7 Noroeste 14 Oeste 0 -- -- 46
2020-08-21 12:00:00 30.5 5 Sudoeste 16 Sudoeste 0 -- -- 55
2020-08-21 11:00:00 27.8 5 Sudoeste 23 Sur 0 -- -- 62
2020-08-21 10:00:00 25.6 8 Sur 27 Sur 0 -- -- 71
2020-08-21 09:00:00 24 5 Sur 16 Sudoeste 0 -- -- 78
2020-08-21 08:00:00 23.4 6 Sudeste 24 Sudeste 0 -- -- 79
2020-08-21 07:00:00 23.4 9 Sudeste 26 Sudeste 0 -- -- 79
2020-08-21 06:00:00 23.7 6 Sudeste 16 Sudoeste 0 -- -- 78
2020-08-21 05:00:00 24.3 5 Sudoeste 18 Sudoeste 0 -- -- 75
2020-08-21 04:00:00 24.5 5 Oeste 23 Sudoeste 0 -- -- 71
2020-08-21 03:00:00 24.9 8 Oeste 32 Sur 0 -- -- 68
2020-08-21 02:00:00 25.3 10 Oeste 28 Sur 0 -- -- 64
2020-08-21 01:00:00 25.5 10 Noroeste 30 Oeste 0 -- -- 60
2020-08-21 00:00:00 25.5 11 Oeste 32 Norte 0 -- -- 61
2020-08-20 23:00:00 25 10 Noroeste 35 Sudoeste 0 -- -- 70
2020-08-20 22:00:00 25.6 9 Sur 37 Sudeste 0 -- -- 67
2020-08-20 21:00:00 27 11 Sur 42 Sur 0 -- -- 48
2020-08-20 20:00:00 28.2 13 Sudeste 39 Sudeste 0 -- -- 44
2020-08-20 19:00:00 29.8 14 Sudeste 42 Sudeste 0 -- -- 47
2020-08-20 18:00:00 31.6 15 Sudeste 46 Sudeste 0 -- -- 42
2020-08-20 17:00:00 32.2 14 Sudeste 41 Este 0 -- -- 39
2020-08-20 16:00:00 32.1 14 Sudeste 38 Este 0 -- -- 38
2020-08-20 15:00:00 32.2 9 Sudoeste 32 Sudeste 0 -- -- 44
2020-08-20 14:00:00 32.4 14 Sudeste 28 Sudeste 0 -- -- 42
2020-08-20 13:00:00 31.8 7 Noroeste 24 Sudeste 0 -- -- 42
2020-08-20 12:00:00 30.5 10 Sudeste 28 Sudeste 0 -- -- 49
2020-08-20 11:00:00 28.6 9 Sudeste 28 Sudoeste 0 -- -- 53
2020-08-20 10:00:00 26.7 8 Sudeste 23 Este 0 -- -- 52
2020-08-20 09:00:00 25.6 7 Este 22 Este 0 -- -- 49
2020-08-20 08:00:00 25.6 9 Sudeste 28 Sudeste 0 -- -- 44
2020-08-20 07:00:00 25.1 5 Sur 26 Sur 0 -- -- 48
2020-08-20 06:00:00 25.4 6 Sur 22 Sur 0 -- -- 50
2020-08-20 05:00:00 25.9 6 Sudeste 24 Sudeste 0 -- -- 47
2020-08-20 04:00:00 26.4 8 Sudeste 27 Este 0 -- -- 42
2020-08-20 03:00:00 26.2 12 Sudeste 31 Este 0 -- -- 45
2020-08-20 02:00:00 25.7 12 Sudeste 31 Este 0 -- -- 52
2020-08-20 01:00:00 25.4 10 Este 27 Este 0 -- -- 55
2020-08-20 00:00:00 25.5 6 Noroeste 32 Este 0 -- -- 57
2020-08-19 23:00:00 25.7 9 Sudeste 32 Sudeste 0 -- -- 55
2020-08-19 22:00:00 25.7 11 Nordeste 32 Este 0 -- -- 57
2020-08-19 21:00:00 26.3 8 Oeste 31 Sudoeste 0 -- -- 58
2020-08-19 20:00:00 28.5 10 Sur 34 Sudeste 0 -- -- 50
2020-08-19 19:00:00 32 9 Sudeste 32 Sudeste 0 -- -- 43
2020-08-19 18:00:00 33 9 Sur 25 Este 0 -- -- 42
2020-08-19 17:00:00 34 10 Oeste 37 Oeste 0 -- -- 38
2020-08-19 16:00:00 34 9 Sudeste 27 Oeste 0 -- -- 39
2020-08-19 15:00:00 34.2 9 Sur 21 Sudoeste 0 -- -- 36
2020-08-19 14:00:00 33.5 8 Noroeste 18 Noroeste 0 -- -- 37
2020-08-19 13:00:00 32.5 6 Norte 26 Noroeste 0 -- -- 39
2020-08-19 12:00:00 30.8 6 Sudoeste 18 Oeste 0 -- -- 41
2020-08-19 11:00:00 29.2 6 Oeste 21 Sudeste 0 -- -- 44
2020-08-19 10:00:00 26.2 5 Sudeste 17 Sudeste 0 -- -- 50
2020-08-19 09:00:00 21.5 3 Sur 13 Sudeste 0 -- -- 65
2020-08-19 08:00:00 19.4 3 Este 5 Sudeste 0 -- -- 70
2020-08-19 07:00:00 19 0 Calma 6 Sur 0 -- -- 70
2020-08-19 06:00:00 18.9 0 Calma 5 Sudoeste 0 -- -- 70
2020-08-19 05:00:00 19.5 0 Calma 4 Sudeste 0 -- -- 68
2020-08-19 04:00:00 19.8 0 Calma 4 Sur 0 -- -- 67
2020-08-19 03:00:00 20.1 0 Calma 2 Sudeste 0 -- -- 66
2020-08-19 02:00:00 20.9 0 Calma 2 Sudeste 0 -- -- 63
2020-08-19 01:00:00 21.7 0 Calma 3 Sur 0 -- -- 60
2020-08-19 00:00:00 22.3 0 Calma 4 Sudeste 0 -- -- 60